createdAt,value
2018-07-06T00:01:04.307Z,58.10
2018-07-06T00:03:25.883Z,58.10
2018-07-06T00:05:47.778Z,58.20
2018-07-06T00:08:09.363Z,58.20
2018-07-06T00:10:30.959Z,58.20
2018-07-06T00:12:52.503Z,58.20
2018-07-06T00:15:13.982Z,58.20
2018-07-06T00:17:35.327Z,58.30
2018-07-06T00:19:56.795Z,58.40
2018-07-06T00:22:18.078Z,58.40
2018-07-06T00:24:39.218Z,58.40
2018-07-06T00:27:02.666Z,58.40
2018-07-06T00:29:24.679Z,58.50
2018-07-06T00:34:01.495Z,59.20
2018-07-06T00:36:23.152Z,58.50
2018-07-06T00:38:45.182Z,58.60
2018-07-06T00:41:06.667Z,58.60
2018-07-06T00:43:27.974Z,58.70
2018-07-06T00:45:49.549Z,58.80
2018-07-06T00:50:28.121Z,58.80
2018-07-06T00:52:49.737Z,58.80
2018-07-06T00:55:11.112Z,58.80
2018-07-06T00:57:32.514Z,58.80
2018-07-06T00:59:53.942Z,58.90
2018-07-06T01:02:17.453Z,58.90
2018-07-06T01:04:40.115Z,58.90
2018-07-06T01:07:04.302Z,58.90
2018-07-06T01:09:26.873Z,58.90
2018-07-06T01:11:48.891Z,58.90
2018-07-06T01:14:10.581Z,59.00
2018-07-06T01:16:31.963Z,59.10
2018-07-06T01:18:53.226Z,59.20
2018-07-06T01:21:14.667Z,59.20
2018-07-06T01:23:36.114Z,59.20
2018-07-06T01:25:57.648Z,59.30
2018-07-06T01:28:19.169Z,59.30
2018-07-06T01:30:40.464Z,59.20
2018-07-06T01:33:01.981Z,59.20
2018-07-06T01:35:23.451Z,59.10
2018-07-06T01:37:45.070Z,59.20
2018-07-06T01:40:06.443Z,59.10
2018-07-06T01:42:27.894Z,59.10
2018-07-06T01:44:49.402Z,59.30
2018-07-06T01:47:10.879Z,59.30
2018-07-06T01:49:32.139Z,59.30
2018-07-06T01:51:53.506Z,59.40
2018-07-06T01:54:15.189Z,59.40
2018-07-06T01:56:36.215Z,59.30
2018-07-06T01:58:57.458Z,59.40
2018-07-06T02:01:18.900Z,59.40
2018-07-06T02:03:41.485Z,59.40
2018-07-06T02:06:04.109Z,59.40
2018-07-06T02:08:26.965Z,59.40
2018-07-06T02:10:49.374Z,59.30
2018-07-06T02:13:13.081Z,59.30
2018-07-06T02:15:34.706Z,59.40
2018-07-06T02:17:57.694Z,59.40
2018-07-06T02:20:19.338Z,59.40
2018-07-06T02:22:40.787Z,59.60
2018-07-06T02:25:02.239Z,59.60
2018-07-06T02:27:23.543Z,59.60
2018-07-06T02:29:45.582Z,59.70
2018-07-06T02:32:07.007Z,59.70
2018-07-06T02:34:28.277Z,59.70
2018-07-06T02:36:49.784Z,59.80
2018-07-06T02:39:11.365Z,59.80
2018-07-06T02:41:32.859Z,59.90
2018-07-06T02:43:55.086Z,59.90
2018-07-06T02:46:16.449Z,59.90
2018-07-06T02:48:37.909Z,60.10
2018-07-06T02:50:59.269Z,60.10
2018-07-06T02:53:20.663Z,60.00
2018-07-06T02:55:43.574Z,60.20
2018-07-06T03:00:20.695Z,60.40
2018-07-06T03:02:42.030Z,60.60
2018-07-06T03:05:03.618Z,60.70
2018-07-06T03:07:26.117Z,60.90
2018-07-06T03:09:47.708Z,61.10
2018-07-06T03:12:11.230Z,61.20
2018-07-06T03:14:33.090Z,61.30
2018-07-06T03:16:55.172Z,61.50
2018-07-06T03:19:19.240Z,61.60
2018-07-06T03:21:40.658Z,61.80
2018-07-06T03:24:02.364Z,62.00
2018-07-06T03:26:24.721Z,62.20
2018-07-06T03:28:46.673Z,62.40
2018-07-06T03:31:07.943Z,62.30
2018-07-06T03:33:29.418Z,62.40
2018-07-06T03:35:52.902Z,62.50
2018-07-06T03:38:16.589Z,62.60
2018-07-06T03:40:38.283Z,62.80
2018-07-06T03:43:00.872Z,63.80
2018-07-06T03:45:23.771Z,62.90
2018-07-06T03:47:48.341Z,62.90
2018-07-06T03:50:09.918Z,62.90
2018-07-06T03:52:33.381Z,62.90
2018-07-06T03:54:58.495Z,62.90
2018-07-06T03:57:21.494Z,62.90
2018-07-06T03:59:45.776Z,62.90
2018-07-06T04:02:08.278Z,62.90
2018-07-06T04:09:03.465Z,63.00
2018-07-06T04:11:26.945Z,62.80
2018-07-06T04:13:50.007Z,62.90
2018-07-06T04:16:12.769Z,62.80
2018-07-06T04:18:35.469Z,62.80
2018-07-06T04:20:57.720Z,62.80
2018-07-06T04:23:18.817Z,63.10
2018-07-06T04:25:40.129Z,63.30
2018-07-06T04:28:01.609Z,63.40
2018-07-06T04:30:23.117Z,63.40
2018-07-06T04:35:00.013Z,63.80
2018-07-06T04:37:21.411Z,63.90
2018-07-06T04:39:42.845Z,63.90
2018-07-06T04:42:04.260Z,64.20
2018-07-06T04:44:26.826Z,64.30
2018-07-06T04:46:48.294Z,64.40
2018-07-06T04:51:25.161Z,64.50
2018-07-06T04:53:46.906Z,64.50
2018-07-06T04:56:08.235Z,64.60
2018-07-06T04:58:29.618Z,64.80
2018-07-06T05:00:50.942Z,65.00
2018-07-06T05:03:12.315Z,65.20
2018-07-06T05:05:33.679Z,65.20
2018-07-06T05:07:54.995Z,65.30
2018-07-06T05:10:16.259Z,65.50
2018-07-06T05:12:37.695Z,65.70
2018-07-06T05:14:58.804Z,65.80
2018-07-06T05:17:20.331Z,66.20
2018-07-06T05:19:41.715Z,66.40
2018-07-06T05:22:02.766Z,66.40
2018-07-06T05:24:24.221Z,66.40
2018-07-06T05:26:45.606Z,66.40
2018-07-06T05:29:07.023Z,66.50
2018-07-06T05:31:28.345Z,67.30
2018-07-06T05:33:49.816Z,66.90
2018-07-06T05:36:11.222Z,67.10
2018-07-06T05:38:32.626Z,67.20
2018-07-06T05:40:53.881Z,67.50
2018-07-06T05:43:15.477Z,67.60
2018-07-06T05:45:36.812Z,67.90
2018-07-06T05:47:58.244Z,67.80
2018-07-06T05:50:19.648Z,67.80
2018-07-06T05:52:41.028Z,67.80
2018-07-06T05:55:02.142Z,67.60
2018-07-06T05:57:23.654Z,67.50
2018-07-06T05:59:45.047Z,67.10
2018-07-06T06:02:07.505Z,67.00
2018-07-06T06:04:29.036Z,67.10
2018-07-06T06:06:50.561Z,66.30
2018-07-06T06:10:58.193Z,67.20
2018-07-06T06:13:02.642Z,67.20
2018-07-06T06:15:07.200Z,67.20
2018-07-06T06:17:11.965Z,66.90
2018-07-06T06:19:16.384Z,66.80
2018-07-06T06:21:20.929Z,66.70
2018-07-06T06:23:26.342Z,66.30
2018-07-06T06:25:30.960Z,66.30
2018-07-06T06:27:37.687Z,66.20
2018-07-06T06:29:46.842Z,66.00
2018-07-06T06:31:51.503Z,65.90
2018-07-06T06:33:57.529Z,65.70
2018-07-06T06:36:02.126Z,65.60
2018-07-06T06:38:06.666Z,65.60
2018-07-06T06:40:11.109Z,65.60
2018-07-06T06:42:15.605Z,65.40
2018-07-06T06:44:20.202Z,65.20
2018-07-06T06:46:25.747Z,65.20
2018-07-06T06:48:31.083Z,65.10
2018-07-06T06:50:35.640Z,65.00
2018-07-06T06:52:40.199Z,65.00
2018-07-06T06:54:44.706Z,65.00
2018-07-06T06:56:54.621Z,64.80
2018-07-06T06:59:02.540Z,64.60
2018-07-06T07:01:09.195Z,64.30
2018-07-06T07:03:17.705Z,64.20
2018-07-06T07:05:25.933Z,64.20
2018-07-06T07:07:36.521Z,63.90
2018-07-06T07:11:45.243Z,63.00
2018-07-06T07:13:50.383Z,63.30
2018-07-06T07:15:54.888Z,63.80
2018-07-06T07:17:59.463Z,62.70
2018-07-06T07:20:03.922Z,62.30
2018-07-06T07:22:08.462Z,62.30
2018-07-06T07:24:13.018Z,62.00
2018-07-06T07:26:18.940Z,61.90
2018-07-06T07:28:26.293Z,61.70
2018-07-06T07:30:34.886Z,61.40
2018-07-06T07:32:41.550Z,61.30
2018-07-06T07:34:51.985Z,61.30
2018-07-06T07:36:59.530Z,61.10
2018-07-06T07:39:05.089Z,61.00
2018-07-06T07:41:09.631Z,61.20
2018-07-06T07:43:14.181Z,61.10
2018-07-06T07:45:18.735Z,61.10
2018-07-06T07:47:23.259Z,61.10
2018-07-06T07:49:27.669Z,61.00
2018-07-06T07:52:15.666Z,61.00
2018-07-06T07:54:40.460Z,60.70
2018-07-06T07:56:46.877Z,60.70
2018-07-06T07:58:54.620Z,60.90
2018-07-06T08:01:01.345Z,60.80
2018-07-06T08:03:09.162Z,60.70
2018-07-06T08:05:13.706Z,60.70
2018-07-06T08:07:18.789Z,60.70
2018-07-06T08:09:24.365Z,60.90
2018-07-06T08:11:28.886Z,60.80
2018-07-06T08:13:33.511Z,61.00
2018-07-06T08:15:38.080Z,60.90
2018-07-06T08:17:42.518Z,60.20
2018-07-06T08:19:46.997Z,61.10
2018-07-06T08:21:52.427Z,61.00
2018-07-06T08:23:56.964Z,61.00
2018-07-06T08:26:01.578Z,61.10
2018-07-06T08:28:06.309Z,61.10
2018-07-06T08:30:10.833Z,60.90
2018-07-06T08:32:15.367Z,61.00
2018-07-06T08:34:36.842Z,60.90
2018-07-06T08:37:57.250Z,60.80
2018-07-06T08:40:01.838Z,60.60
2018-07-06T08:42:06.311Z,60.60
2018-07-06T08:44:10.928Z,60.70
2018-07-06T08:46:15.439Z,60.70
2018-07-06T08:48:19.954Z,60.70
2018-07-06T08:50:24.469Z,61.50
2018-07-06T08:52:29.073Z,60.70
2018-07-06T08:56:39.270Z,60.30
2018-07-06T08:58:43.919Z,60.40
2018-07-06T09:00:48.231Z,60.40
2018-07-06T09:02:55.688Z,60.30
2018-07-06T09:05:03.345Z,60.20
2018-07-06T09:07:11.043Z,60.00
2018-07-06T09:09:19.255Z,60.00
2018-07-06T09:11:26.590Z,59.80
2018-07-06T09:13:31.322Z,59.60
2018-07-06T09:15:35.855Z,59.30
2018-07-06T09:17:42.976Z,59.50
2018-07-06T09:19:48.326Z,59.30
2018-07-06T09:21:52.643Z,59.20
2018-07-06T09:23:57.145Z,59.10
2018-07-06T09:26:02.037Z,59.30
2018-07-06T09:28:06.179Z,59.50
2018-07-06T09:30:10.632Z,59.20
2018-07-06T09:32:15.087Z,58.90
2018-07-06T09:34:19.547Z,58.80
2018-07-06T09:36:24.572Z,58.60
2018-07-06T09:38:29.065Z,58.40
2018-07-06T09:40:33.540Z,58.40
2018-07-06T09:42:38.020Z,58.30
2018-07-06T09:44:42.486Z,58.10
2018-07-06T09:46:46.942Z,58.50
2018-07-06T09:48:51.457Z,58.60
2018-07-06T09:50:56.729Z,58.70
2018-07-06T09:53:01.840Z,58.50
2018-07-06T09:55:06.455Z,58.10
2018-07-06T09:57:10.926Z,57.70
2018-07-06T09:59:15.384Z,57.60
2018-07-06T10:01:19.925Z,57.50
2018-07-06T10:03:24.817Z,57.20
2018-07-06T10:05:29.374Z,57.10
2018-07-06T10:07:33.831Z,56.90
2018-07-06T10:09:38.545Z,56.90
2018-07-06T10:13:48.314Z,56.60
2018-07-06T10:17:56.895Z,56.20
2018-07-06T10:20:01.428Z,56.30
2018-07-06T10:22:06.427Z,55.70
2018-07-06T10:24:15.203Z,55.20
2018-07-06T10:26:21.930Z,54.90
2018-07-06T10:30:49.676Z,54.40
2018-07-06T10:32:54.222Z,54.50
2018-07-06T10:34:59.395Z,55.10
2018-07-06T10:37:05.165Z,54.80
2018-07-06T10:39:11.835Z,54.10
2018-07-06T10:41:16.347Z,53.80
2018-07-06T10:43:20.781Z,54.40
2018-07-06T10:45:25.262Z,53.80
2018-07-06T10:49:33.954Z,53.70
2018-07-06T10:51:38.412Z,53.00
2018-07-06T10:53:43.415Z,52.20
2018-07-06T10:55:48.685Z,52.10
2018-07-06T10:57:53.176Z,52.30
2018-07-06T10:59:57.662Z,51.20
2018-07-06T11:02:02.250Z,50.90
2018-07-06T11:04:07.012Z,50.80
2018-07-06T11:06:12.389Z,50.20
2018-07-06T11:08:18.367Z,49.80
2018-07-06T11:10:23.015Z,49.60
2018-07-06T11:12:27.506Z,47.30
2018-07-06T11:14:32.073Z,48.20
2018-07-06T11:16:36.587Z,48.90
2018-07-06T11:18:41.038Z,48.10
2018-07-06T11:20:46.313Z,47.90
2018-07-06T11:24:56.638Z,48.10
2018-07-06T11:27:01.186Z,47.60
2018-07-06T11:29:06.588Z,48.10
2018-07-06T11:31:11.102Z,47.90
2018-07-06T11:33:16.523Z,48.20
2018-07-06T11:35:22.226Z,47.90
2018-07-06T11:37:30.343Z,47.00
2018-07-06T11:39:35.215Z,47.10
2018-07-06T11:41:40.312Z,47.20
2018-07-06T11:43:45.359Z,46.80
2018-07-06T11:45:49.882Z,46.80
2018-07-06T11:47:54.520Z,46.40
2018-07-06T11:50:00.051Z,46.10
2018-07-06T11:52:05.196Z,45.90
2018-07-06T11:54:10.134Z,45.70
2018-07-06T11:56:14.938Z,45.60
2018-07-06T11:58:19.972Z,45.70
2018-07-06T12:00:24.454Z,45.50
2018-07-06T12:04:33.516Z,45.00
2018-07-06T12:06:37.908Z,44.50
2018-07-06T12:08:42.363Z,44.30
2018-07-06T12:10:46.991Z,44.20
2018-07-06T12:12:51.673Z,44.10
2018-07-06T12:14:56.109Z,44.10
2018-07-06T12:17:02.144Z,44.70
2018-07-06T12:19:06.698Z,43.80
2018-07-06T12:21:11.758Z,43.50
2018-07-06T12:23:16.497Z,43.40
2018-07-06T12:25:21.874Z,43.70
2018-07-06T12:27:26.821Z,43.70
2018-07-06T12:29:31.266Z,43.60
2018-07-06T12:31:35.842Z,42.80
2018-07-06T12:33:40.412Z,42.20
2018-07-06T12:35:45.685Z,41.70
2018-07-06T12:37:51.332Z,41.60
2018-07-06T12:39:56.226Z,41.30
2018-07-06T12:42:01.030Z,41.30
2018-07-06T12:44:06.847Z,41.40
2018-07-06T12:46:11.617Z,41.50
2018-07-06T12:48:16.291Z,41.10
2018-07-06T12:50:20.728Z,41.00
2018-07-06T12:54:42.322Z,41.00
2018-07-06T12:56:47.726Z,40.50
2018-07-06T12:58:53.580Z,40.40
2018-07-06T13:00:58.225Z,41.30
2018-07-06T13:03:02.658Z,40.80
2018-07-06T13:05:07.747Z,40.70
2018-07-06T13:07:12.211Z,40.40
2018-07-06T13:09:16.641Z,40.40
2018-07-06T13:11:21.126Z,40.90
2018-07-06T13:13:25.562Z,40.00
2018-07-06T13:15:30.394Z,39.90
2018-07-06T13:17:38.095Z,39.80
2018-07-06T13:19:46.805Z,39.40
2018-07-06T13:21:52.431Z,39.10
2018-07-06T13:23:56.870Z,38.80
2018-07-06T13:26:01.435Z,38.60
2018-07-06T13:28:06.385Z,38.30
2018-07-06T13:30:10.852Z,38.40
2018-07-06T13:32:15.637Z,38.70
2018-07-06T13:34:20.255Z,38.40
2018-07-06T13:36:24.742Z,38.30
2018-07-06T13:38:30.471Z,38.30
2018-07-06T13:40:35.454Z,38.40
2018-07-06T13:42:40.533Z,38.20
2018-07-06T13:46:49.400Z,37.50
2018-07-06T13:48:54.394Z,37.20
2018-07-06T13:50:59.008Z,36.80
2018-07-06T13:53:04.760Z,36.70
2018-07-06T13:55:09.750Z,36.70
2018-07-06T13:57:14.282Z,36.90
2018-07-06T13:59:19.373Z,37.50
2018-07-06T14:01:23.911Z,37.00
2018-07-06T14:03:28.957Z,37.30
2018-07-06T14:05:34.458Z,36.90
2018-07-06T14:07:38.923Z,36.70
2018-07-06T14:09:43.548Z,36.80
2018-07-06T14:11:48.856Z,36.40
2018-07-06T14:13:53.736Z,36.80
2018-07-06T14:15:58.329Z,36.90
2018-07-06T14:18:03.142Z,36.10
2018-07-06T14:20:07.722Z,35.60
2018-07-06T14:22:12.236Z,35.30
2018-07-06T14:24:16.866Z,35.60
2018-07-06T14:26:21.859Z,35.50
2018-07-06T14:28:26.788Z,35.10
2018-07-06T14:30:31.290Z,35.20
2018-07-06T14:32:35.803Z,35.60
2018-07-06T14:34:41.504Z,35.80
2018-07-06T14:36:45.993Z,36.80
2018-07-06T14:38:50.540Z,36.10
2018-07-06T14:40:55.025Z,35.80
2018-07-06T14:43:00.014Z,36.10
2018-07-06T14:45:07.318Z,36.10
2018-07-06T14:47:11.863Z,36.00
2018-07-06T14:49:16.897Z,36.10
2018-07-06T14:51:21.367Z,36.10
2018-07-06T14:53:27.067Z,35.80
2018-07-06T14:55:31.552Z,35.90
2018-07-06T14:57:36.350Z,36.20
2018-07-06T15:01:45.302Z,35.80
2018-07-06T15:03:49.814Z,35.60
2018-07-06T15:05:54.358Z,35.40
2018-07-06T15:07:58.820Z,35.20
2018-07-06T15:10:03.266Z,35.00
2018-07-06T15:12:07.714Z,34.70
2018-07-06T15:14:12.450Z,34.60
2018-07-06T15:16:16.965Z,35.30
2018-07-06T15:18:22.275Z,34.90
2018-07-06T15:20:28.929Z,35.00
2018-07-06T15:22:34.313Z,35.10
2018-07-06T15:24:39.685Z,35.10
2018-07-06T15:26:44.339Z,34.80
2018-07-06T15:28:49.031Z,34.70
2018-07-06T15:30:54.448Z,34.50
2018-07-06T15:32:59.491Z,34.50
2018-07-06T15:35:04.994Z,34.40
2018-07-06T15:37:09.553Z,34.00
2018-07-06T15:39:14.371Z,34.00
2018-07-06T15:41:19.090Z,34.00
2018-07-06T15:43:24.130Z,33.90
2018-07-06T15:45:28.739Z,33.80
2018-07-06T15:47:33.374Z,33.70
2018-07-06T15:49:38.069Z,33.30
2018-07-06T15:51:42.705Z,33.70
2018-07-06T15:53:48.492Z,33.40
2018-07-06T15:55:53.278Z,33.30
2018-07-06T15:57:59.175Z,33.20
2018-07-06T16:00:04.213Z,33.70
2018-07-06T16:02:09.558Z,33.20
2018-07-06T16:04:14.913Z,33.20
2018-07-06T16:06:19.816Z,33.20
2018-07-06T16:08:24.311Z,33.20
2018-07-06T16:10:28.840Z,33.40
2018-07-06T16:14:37.587Z,33.30
2018-07-06T16:16:42.055Z,33.30
2018-07-06T16:18:46.551Z,33.30
2018-07-06T16:20:51.399Z,33.30
2018-07-06T16:22:55.880Z,33.30
2018-07-06T16:25:00.406Z,33.30
2018-07-06T16:27:07.187Z,33.30
2018-07-06T16:29:11.883Z,33.30
2018-07-06T16:31:16.444Z,33.30
2018-07-06T16:33:21.238Z,34.10
2018-07-06T16:35:25.786Z,33.40
2018-07-06T16:37:30.493Z,33.40
2018-07-06T16:39:35.157Z,33.60
2018-07-06T16:41:39.950Z,33.80
2018-07-06T16:43:44.435Z,33.60
2018-07-06T16:45:48.897Z,34.00
2018-07-06T16:47:54.538Z,34.00
2018-07-06T16:49:59.043Z,34.10
2018-07-06T16:52:04.295Z,34.60
2018-07-06T16:54:09.797Z,34.90
2018-07-06T16:56:14.883Z,34.50
2018-07-06T16:58:19.305Z,34.80
2018-07-06T17:00:23.982Z,35.30
2018-07-06T17:02:30.147Z,35.30
2018-07-06T17:04:35.015Z,34.90
2018-07-06T17:06:39.851Z,34.90
2018-07-06T17:08:44.554Z,35.30
2018-07-06T17:10:49.063Z,35.30
2018-07-06T17:12:53.518Z,35.30
2018-07-06T17:14:57.983Z,35.90
2018-07-06T17:17:02.438Z,36.10
2018-07-06T17:19:06.990Z,35.80
2018-07-06T17:21:11.426Z,35.90
2018-07-06T17:23:16.201Z,36.20
2018-07-06T17:27:25.533Z,36.80
2018-07-06T17:29:30.531Z,37.10
2018-07-06T17:31:35.072Z,36.90
2018-07-06T17:33:40.890Z,37.20
2018-07-06T17:35:45.396Z,36.90
2018-07-06T17:37:49.907Z,36.80
2018-07-06T17:39:55.119Z,36.90
2018-07-06T17:42:00.738Z,36.80
2018-07-06T17:44:05.261Z,36.60
2018-07-06T17:46:09.882Z,36.60
2018-07-06T17:48:14.424Z,37.20
2018-07-06T17:50:18.979Z,37.20
2018-07-06T17:52:23.534Z,37.40
2018-07-06T17:54:28.019Z,37.10
2018-07-06T17:56:32.704Z,37.80
2018-07-06T17:58:37.267Z,37.60
2018-07-06T18:00:41.797Z,37.30
2018-07-06T18:02:46.269Z,37.80
2018-07-06T18:04:51.017Z,38.10
2018-07-06T18:06:55.679Z,38.30
2018-07-06T18:09:00.983Z,38.90
2018-07-06T18:11:05.977Z,38.70
2018-07-06T18:13:10.645Z,39.30
2018-07-06T18:15:16.272Z,39.00
2018-07-06T18:17:20.906Z,38.90
2018-07-06T18:19:28.202Z,39.10
2018-07-06T18:21:32.914Z,39.60
2018-07-06T18:23:37.678Z,39.90
2018-07-06T18:25:43.084Z,40.00
2018-07-06T18:27:48.699Z,40.30
2018-07-06T18:29:53.656Z,40.10
2018-07-06T18:31:58.357Z,38.80
2018-07-06T18:34:03.285Z,39.20
2018-07-06T18:36:07.926Z,40.00
2018-07-06T18:38:12.459Z,40.30
2018-07-06T18:40:17.374Z,40.70
2018-07-06T18:42:21.821Z,40.50
2018-07-06T18:44:26.377Z,40.50
2018-07-06T18:46:30.857Z,40.90
2018-07-06T18:48:35.459Z,40.70
2018-07-06T18:50:41.095Z,41.10
2018-07-06T18:52:45.828Z,41.30
2018-07-06T18:54:50.475Z,41.70
2018-07-06T18:56:58.892Z,41.70
2018-07-06T18:59:07.542Z,41.90
2018-07-06T19:01:14.613Z,41.90
2018-07-06T19:03:22.268Z,41.90
2018-07-06T19:05:29.061Z,41.80
2018-07-06T19:07:34.638Z,42.00
2018-07-06T19:09:40.263Z,42.00
2018-07-06T19:11:46.146Z,42.20
2018-07-06T19:13:52.830Z,42.30
2018-07-06T19:15:58.497Z,42.40
2018-07-06T19:18:05.195Z,42.60
2018-07-06T19:20:12.335Z,42.80
2018-07-06T19:22:17.073Z,42.80
2018-07-06T19:24:22.077Z,42.80
2018-07-06T19:26:28.905Z,43.00
2018-07-06T19:28:36.446Z,43.00
2018-07-06T19:30:44.214Z,43.20
2018-07-06T19:32:48.809Z,43.40
2018-07-06T19:34:53.246Z,43.40
2018-07-06T19:36:57.774Z,43.50
2018-07-06T19:39:02.338Z,43.60
2018-07-06T19:41:06.850Z,43.80
2018-07-06T19:43:11.666Z,43.80
2018-07-06T19:45:25.121Z,44.00
2018-07-06T19:47:29.858Z,44.20
2018-07-06T19:49:34.270Z,44.30
2018-07-06T19:51:39.106Z,44.40
2018-07-06T19:53:44.939Z,44.30
2018-07-06T19:55:49.434Z,44.50
2018-07-06T19:57:54.235Z,45.10
2018-07-06T19:59:58.658Z,44.70
2018-07-06T20:02:03.455Z,44.80
2018-07-06T20:04:08.273Z,45.00
2018-07-06T20:06:13.690Z,45.20
2018-07-06T20:08:18.454Z,45.30
2018-07-06T20:10:23.558Z,45.40
2018-07-06T20:12:28.356Z,45.50
2018-07-06T20:16:37.166Z,45.90
2018-07-06T20:18:41.932Z,46.00
2018-07-06T20:20:46.921Z,46.10
2018-07-06T20:22:51.614Z,46.30
2018-07-06T20:24:56.086Z,46.30
2018-07-06T20:27:00.665Z,46.40
2018-07-06T20:31:09.509Z,46.70
2018-07-06T20:33:14.409Z,46.70
2018-07-06T20:35:18.926Z,46.70
2018-07-06T20:37:23.394Z,46.80
2018-07-06T20:39:27.979Z,46.90
2018-07-06T20:41:32.998Z,47.00
2018-07-06T20:43:37.879Z,47.10
2018-07-06T20:45:42.758Z,47.10
2018-07-06T20:47:47.760Z,47.20
2018-07-06T20:49:52.464Z,47.30
2018-07-06T20:51:57.890Z,47.30
2018-07-06T20:54:02.472Z,47.40
2018-07-06T20:56:07.346Z,47.50
2018-07-06T20:58:12.596Z,47.50
2018-07-06T21:00:17.378Z,47.60
2018-07-06T21:02:21.877Z,47.60
2018-07-06T21:04:26.867Z,48.30
2018-07-06T21:06:31.533Z,47.90
2018-07-06T21:08:36.482Z,48.10
2018-07-06T21:10:41.449Z,48.20
2018-07-06T21:12:47.287Z,48.30
2018-07-06T21:14:51.958Z,48.40
2018-07-06T21:16:56.999Z,48.70
2018-07-06T21:19:01.775Z,48.80
2018-07-06T21:21:06.526Z,49.00
2018-07-06T21:23:11.147Z,49.00
2018-07-06T21:25:15.654Z,49.00
2018-07-06T21:29:25.989Z,48.90
2018-07-06T21:31:30.538Z,49.30
2018-07-06T21:33:34.983Z,49.40
2018-07-06T21:35:39.508Z,49.50
2018-07-06T21:37:44.613Z,49.50
2018-07-06T21:39:49.019Z,49.50
2018-07-06T21:41:53.495Z,49.70
2018-07-06T21:43:58.023Z,49.70
2018-07-06T21:46:02.485Z,49.90
2018-07-06T21:48:10.905Z,49.90
2018-07-06T21:52:21.994Z,50.10
2018-07-06T21:54:30.602Z,50.40
2018-07-06T21:56:38.160Z,50.20
2018-07-06T21:58:45.030Z,50.40
2018-07-06T22:00:49.673Z,50.40
2018-07-06T22:02:55.522Z,50.70
2018-07-06T22:05:00.850Z,50.70
2018-07-06T22:07:05.370Z,50.70
2018-07-06T22:09:11.447Z,50.70
2018-07-06T22:11:18.078Z,50.90
2018-07-06T22:13:22.598Z,51.10
2018-07-06T22:15:34.038Z,51.20
2018-07-06T22:17:40.279Z,51.30
2018-07-06T22:19:45.146Z,51.40
2018-07-06T22:21:49.581Z,51.60
2018-07-06T22:23:54.064Z,51.70
2018-07-06T22:25:58.522Z,51.80
2018-07-06T22:28:03.040Z,51.90
2018-07-06T22:32:11.674Z,52.10
2018-07-06T22:34:16.585Z,52.10
2018-07-06T22:36:21.001Z,52.00
2018-07-06T22:38:25.567Z,52.10
2018-07-06T22:40:30.082Z,52.10
2018-07-06T22:42:34.535Z,52.20
2018-07-06T22:44:39.166Z,52.20
2018-07-06T22:46:43.599Z,53.00
2018-07-06T22:48:48.064Z,52.50
2018-07-06T22:50:52.501Z,52.60
2018-07-06T22:52:56.975Z,52.50
2018-07-06T22:55:01.501Z,52.50
2018-07-06T22:57:07.093Z,52.70
2018-07-06T22:59:11.539Z,52.80
2018-07-06T23:03:20.142Z,52.80
2018-07-06T23:05:24.673Z,52.80
2018-07-06T23:07:29.114Z,52.80
2018-07-06T23:09:33.559Z,52.80
2018-07-06T23:11:37.998Z,52.80
2018-07-06T23:13:42.494Z,52.80
2018-07-06T23:15:47.464Z,52.80
2018-07-06T23:17:51.958Z,52.90
2018-07-06T23:19:56.406Z,52.90
2018-07-06T23:22:01.062Z,53.60
2018-07-06T23:24:05.575Z,53.00
2018-07-06T23:26:10.030Z,53.30
2018-07-06T23:28:14.614Z,53.30
2018-07-06T23:30:19.083Z,53.50
2018-07-06T23:32:23.518Z,53.60
2018-07-06T23:34:28.035Z,53.50
2018-07-06T23:36:32.482Z,53.50
2018-07-06T23:38:36.904Z,53.60
2018-07-06T23:40:41.429Z,53.70
2018-07-06T23:42:45.861Z,53.70
2018-07-06T23:44:50.339Z,53.70
2018-07-06T23:46:54.831Z,53.80
2018-07-06T23:48:59.430Z,53.80
2018-07-06T23:51:03.870Z,53.90
2018-07-06T23:53:08.333Z,54.20
2018-07-06T23:55:13.261Z,54.10
2018-07-06T23:57:17.758Z,54.00
2018-07-06T23:59:22.198Z,54.20
